Time;durP1;ratioP1;P1;durP2;ratioP2;P2;SDS_P1;SDS_P2;PMS_P1;PMS_P2;Temp;Humidity;BMP_temperature;BMP_pressure;BME280_temperature;BME280_humidity;BME280_pressure;Samples;Min_cycle;Max_cycle;Signal;HPM_P1;HPM_P2
2021/12/12 00:00:05;;;;;;;56.83;28.13;;;3.90;99.90;;;;;;6306873;22;20460;-82
2021/12/12 00:05:39;;;;;;;62.75;30.48;;;3.90;99.90;;;;;;6307135;22;20107;-82
2021/12/12 00:08:25;;;;;;;55.67;29.02;;;3.90;99.90;;;;;;6306919;22;20372;-82
2021/12/12 00:11:12;;;;;;;55.95;27.45;;;3.90;99.90;;;;;;6306338;22;20013;-82
2021/12/12 00:14:04;;;;;;;59.57;26.63;;;4.10;99.90;;;;;;6306863;22;20069;-82
2021/12/12 00:16:50;;;;;;;52.45;25.98;;;3.90;99.90;;;;;;6306902;22;20010;-82
2021/12/12 00:19:35;;;;;;;59.25;29.13;;;4.40;99.90;;;;;;6306744;22;20068;-82
2021/12/12 00:22:27;;;;;;;54.65;27.80;;;3.90;99.90;;;;;;6305083;22;20014;-82
2021/12/12 00:25:12;;;;;;;55.47;27.17;;;3.90;99.90;;;;;;6305007;22;20057;-82
2021/12/12 00:27:59;;;;;;;59.25;27.25;;;4.20;99.90;;;;;;6306633;22;20464;-82
2021/12/12 00:30:44;;;;;;;55.08;26.52;;;4.00;99.90;;;;;;6305100;22;20014;-81
2021/12/12 00:33:28;;;;;;;57.22;28.42;;;4.00;99.90;;;;;;6261975;22;20081;-82
2021/12/12 00:36:16;;;;;;;60.22;27.73;;;4.00;99.90;;;;;;6283086;22;20525;-82
2021/12/12 00:39:07;;;;;;;64.43;28.70;;;4.00;99.90;;;;;;6305437;22;20018;-83
2021/12/12 00:41:57;;;;;;;52.80;27.70;;;4.30;99.90;;;;;;6306874;22;20010;-81
2021/12/12 00:44:49;;;;;;;58.33;27.80;;;4.00;99.90;;;;;;6305395;22;20049;-82
2021/12/12 00:47:33;;;;;;;51.03;27.47;;;4.10;99.90;;;;;;6306619;22;20388;-81
2021/12/12 00:50:28;;;;;;;57.72;28.00;;;4.00;99.90;;;;;;6306215;22;20014;-82
2021/12/12 00:53:14;;;;;;;52.72;26.10;;;4.00;99.90;;;;;;6304910;22;20013;-82
2021/12/12 00:55:58;;;;;;;50.67;26.52;;;4.00;99.90;;;;;;6283777;22;20041;-82
2021/12/12 00:58:42;;;;;;;51.08;25.88;;;4.00;99.90;;;;;;6305614;22;20388;-82
2021/12/12 01:01:28;;;;;;;;;;;4.10;99.90;;;;;;6306684;22;20053;-82
2021/12/12 01:04:18;;;;;;;53.13;27.92;;;4.00;99.90;;;;;;6304870;22;19934;-82
2021/12/12 01:07:06;;;;;;;57.15;28.17;;;4.10;99.90;;;;;;6305591;22;20383;-81
2021/12/12 01:10:05;;;;;;;59.42;27.50;;;4.10;99.90;;;;;;6306696;22;20344;-81
2021/12/12 01:12:50;;;;;;;58.58;27.92;;;4.70;99.90;;;;;;6305327;22;20046;-81
2021/12/12 01:15:43;;;;;;;58.60;27.93;;;4.10;99.90;;;;;;6306633;22;20018;-81
2021/12/12 01:18:32;;;;;;;59.90;28.60;;;4.10;99.90;;;;;;6306184;22;20033;-81
2021/12/12 01:21:40;;;;;;;50.67;25.63;;;4.10;99.90;;;;;;6306093;22;20337;-81
2021/12/12 01:24:34;;;;;;;59.13;26.93;;;4.10;99.90;;;;;;6304857;22;20025;-81
2021/12/12 01:27:19;;;;;;;60.53;26.45;;;4.10;99.90;;;;;;6304736;22;20025;-81
2021/12/12 01:30:08;;;;;;;59.50;26.40;;;4.20;99.90;;;;;;6306567;22;20491;-82
2021/12/12 01:32:54;;;;;;;54.45;27.50;;;4.20;99.90;;;;;;6306681;22;20014;-82
2021/12/12 01:35:40;;;;;;;62.22;26.35;;;4.20;99.90;;;;;;6306490;22;20517;-82
2021/12/12 01:41:33;;;;;;;55.85;27.52;;;4.20;99.90;;;;;;6304899;22;20038;-82
2021/12/12 01:44:30;;;;;;;52.38;25.02;;;4.20;99.90;;;;;;6307729;22;20349;-82
2021/12/12 01:47:22;;;;;;;49.58;26.25;;;4.10;99.90;;;;;;6306444;22;20010;-82
2021/12/12 01:50:18;;;;;;;54.33;27.50;;;4.20;99.90;;;;;;6308280;22;20555;-81
2021/12/12 01:53:06;;;;;;;58.25;26.42;;;4.20;99.90;;;;;;6308259;22;20092;-81
2021/12/12 01:56:02;;;;;;;51.13;28.00;;;4.20;99.90;;;;;;6306977;22;20132;-82
2021/12/12 01:58:51;;;;;;;50.28;26.58;;;4.20;99.90;;;;;;6306870;22;20380;-82
2021/12/12 02:01:41;;;;;;;55.70;27.45;;;4.20;99.90;;;;;;6306097;22;20065;-82
2021/12/12 02:04:38;;;;;;;60.33;27.15;;;4.20;99.90;;;;;;6307442;22;20026;-81
2021/12/12 02:07:27;;;;;;;53.50;27.00;;;4.20;99.90;;;;;;6307539;22;20046;-82
2021/12/12 02:10:20;;;;;;;54.33;25.90;;;4.20;99.90;;;;;;6308030;22;20050;-82
2021/12/12 02:13:08;;;;;;;53.88;27.83;;;4.20;99.90;;;;;;6307941;22;20013;-82
2021/12/12 02:15:55;;;;;;;60.47;27.85;;;4.30;99.90;;;;;;6308062;22;20057;-82
2021/12/12 02:18:46;;;;;;;61.17;27.65;;;4.20;99.90;;;;;;6308048;22;20133;-82
2021/12/12 02:22:05;;;;;;;65.53;27.70;;;4.20;99.90;;;;;;6307341;22;20121;-83
2021/12/12 02:37:27;;;;;;;45.88;21.33;;;4.20;99.90;;;;;;6306317;22;20022;-83
2021/12/12 02:40:17;;;;;;;59.83;26.33;;;4.30;99.90;;;;;;6307770;22;20046;-83
2021/12/12 02:43:02;;;;;;;54.57;24.90;;;4.20;99.90;;;;;;6306447;22;20017;-83
2021/12/12 02:45:51;;;;;;;48.47;22.17;;;4.40;99.90;;;;;;6307743;22;20503;-83
2021/12/12 02:48:39;;;;;;;58.53;25.43;;;4.20;99.90;;;;;;6306963;22;20014;-83
2021/12/12 02:51:24;;;;;;;58.63;24.65;;;4.40;99.90;;;;;;6307088;22;20013;-83
2021/12/12 02:54:10;;;;;;;55.35;23.85;;;4.30;99.90;;;;;;6307207;22;20396;-83
2021/12/12 02:56:55;;;;;;;47.22;24.10;;;4.40;99.90;;;;;;6306354;22;20388;-83
2021/12/12 02:59:42;;;;;;;47.13;22.48;;;4.30;99.90;;;;;;6283840;22;20037;-83
2021/12/12 03:02:33;;;;;;;51.17;24.10;;;4.30;99.90;;;;;;6307026;22;20023;-84
2021/12/12 03:05:21;;;;;;;53.50;22.38;;;4.40;99.90;;;;;;6307461;22;20068;-84
2021/12/12 03:08:05;;;;;;;51.83;24.60;;;4.40;99.90;;;;;;6306160;22;20030;-84
2021/12/12 03:10:52;;;;;;;51.25;21.95;;;4.40;99.90;;;;;;6306440;22;20050;-83
2021/12/12 03:13:36;;;;;;;47.42;22.75;;;4.40;99.90;;;;;;6306834;22;20068;-83
2021/12/12 03:16:22;;;;;;;45.28;21.77;;;4.40;99.90;;;;;;6307404;22;20341;-84
2021/12/12 03:19:07;;;;;;;48.20;24.08;;;4.40;99.90;;;;;;6306075;22;20019;-83
2021/12/12 03:21:51;;;;;;;47.03;19.38;;;4.50;99.90;;;;;;6306139;22;20084;-83
2021/12/12 03:24:36;;;;;;;;;;;4.40;99.90;;;;;;6305916;22;20067;-84
2021/12/12 03:27:21;;;;;;;34.70;17.45;;;4.60;99.90;;;;;;6306026;22;19914;-83
2021/12/12 03:30:06;;;;;;;36.13;18.17;;;4.50;99.90;;;;;;6306207;22;20071;-83
2021/12/12 03:32:50;;;;;;;41.20;18.10;;;4.50;99.90;;;;;;6307164;22;20057;-83
2021/12/12 03:35:36;;;;;;;41.17;19.90;;;4.60;99.90;;;;;;6305456;22;20015;-83
2021/12/12 03:38:24;;;;;;;37.50;18.00;;;4.80;99.90;;;;;;6306026;22;20014;-83
2021/12/12 03:41:12;;;;;;;47.40;19.00;;;4.60;99.90;;;;;;6307311;22;20061;-83
2021/12/12 03:44:00;;;;;;;34.28;17.38;;;5.00;99.90;;;;;;6305905;22;20455;-83
2021/12/12 03:46:46;;;;;;;36.83;16.70;;;4.70;99.90;;;;;;6306611;22;20011;-83
2021/12/12 03:49:33;;;;;;;40.45;17.63;;;4.60;99.90;;;;;;6305253;22;20065;-84
2021/12/12 03:52:19;;;;;;;36.33;17.55;;;4.70;99.90;;;;;;6307021;22;20010;-84
2021/12/12 03:55:06;;;;;;;33.58;17.08;;;4.70;99.90;;;;;;6305781;22;20018;-83
2021/12/12 03:57:51;;;;;;;30.83;16.35;;;4.70;99.90;;;;;;6306446;22;20014;-83
2021/12/12 04:00:57;;;;;;;36.90;16.92;;;4.80;99.90;;;;;;6283375;22;20030;-83
2021/12/12 04:03:44;;;;;;;35.85;16.17;;;4.90;99.90;;;;;;6306222;22;20022;-83
2021/12/12 04:06:29;;;;;;;34.30;15.80;;;4.70;99.90;;;;;;6306755;22;20334;-85
2021/12/12 04:09:16;;;;;;;39.55;16.48;;;4.90;99.90;;;;;;6306989;22;20010;-83
2021/12/12 04:12:09;;;;;;;29.35;15.38;;;4.80;99.90;;;;;;6306917;22;20456;-83
2021/12/12 04:14:55;;;;;;;31.85;15.60;;;4.70;99.90;;;;;;6306280;22;20452;-83
2021/12/12 04:17:40;;;;;;;32.80;15.18;;;4.70;99.90;;;;;;6306258;22;20014;-83
2021/12/12 04:20:30;;;;;;;29.90;14.15;;;4.80;99.90;;;;;;6305521;22;20068;-83
2021/12/12 04:23:20;;;;;;;36.55;15.02;;;4.90;99.90;;;;;;6305437;22;20029;-83
2021/12/12 04:26:33;;;;;;;35.92;14.45;;;4.80;99.90;;;;;;6306855;22;20075;-83
2021/12/12 04:29:24;;;;;;;28.83;14.23;;;4.80;99.90;;;;;;6306778;22;20010;-84
2021/12/12 04:32:12;;;;;;;25.55;13.75;;;4.80;99.90;;;;;;6307018;22;20036;-83
2021/12/12 04:35:17;;;;;;;32.17;14.57;;;4.80;99.90;;;;;;6305059;22;20075;-83
2021/12/12 04:38:04;;;;;;;19.80;11.88;;;4.80;99.90;;;;;;6306833;22;20061;-82
2021/12/12 04:40:48;;;;;;;26.30;12.82;;;4.80;99.90;;;;;;6306284;22;20011;-83
2021/12/12 04:43:32;;;;;;;34.95;14.00;;;4.80;99.90;;;;;;6283615;22;20022;-83
2021/12/12 04:46:24;;;;;;;25.38;13.23;;;5.00;99.90;;;;;;6283745;22;20018;-83
2021/12/12 04:52:14;;;;;;;22.75;11.98;;;4.80;99.90;;;;;;6306953;22;20018;-83
2021/12/12 04:55:06;;;;;;;21.98;12.15;;;4.80;99.90;;;;;;6306291;22;20443;-83
2021/12/12 04:58:15;;;;;;;22.08;11.95;;;4.90;99.90;;;;;;6306322;22;20013;-83
2021/12/12 05:01:06;;;;;;;20.55;12.57;;;4.80;99.90;;;;;;6306381;22;20440;-83
2021/12/12 05:03:52;;;;;;;22.75;13.80;;;5.00;99.90;;;;;;6306131;22;20038;-83
2021/12/12 05:06:58;;;;;;;20.15;11.45;;;4.80;99.90;;;;;;6305186;22;20010;-85
2021/12/12 05:09:50;;;;;;;18.35;10.32;;;4.80;99.90;;;;;;6306304;22;20038;-83
2021/12/12 05:13:01;;;;;;;19.30;11.82;;;4.80;99.90;;;;;;6306536;22;20222;-83
2021/12/12 05:15:59;;;;;;;15.98;9.80;;;4.90;99.90;;;;;;6305970;22;20037;-83
2021/12/12 05:18:51;;;;;;;15.85;9.85;;;4.80;99.90;;;;;;6307938;22;20010;-83
2021/12/12 05:21:40;;;;;;;17.33;10.05;;;4.80;99.90;;;;;;6307310;22;20341;-83
2021/12/12 05:24:28;;;;;;;19.25;10.80;;;4.80;99.90;;;;;;6307162;22;20018;-83
2021/12/12 05:27:17;;;;;;;20.02;11.02;;;5.00;99.90;;;;;;6308408;22;20144;-84
2021/12/12 05:30:08;;;;;;;17.27;10.50;;;4.90;99.90;;;;;;6308016;22;20104;-83
2021/12/12 05:32:53;;;;;;;15.65;10.07;;;4.90;99.90;;;;;;6306672;22;20014;-83
2021/12/12 05:35:39;;;;;;;18.58;10.40;;;4.90;99.90;;;;;;6308290;22;20018;-83
2021/12/12 05:38:26;;;;;;;15.48;9.70;;;5.00;99.90;;;;;;6308312;22;20015;-83
2021/12/12 05:41:11;;;;;;;19.10;9.68;;;5.00;99.90;;;;;;6307254;22;20014;-83
2021/12/12 05:43:57;;;;;;;16.45;9.57;;;5.00;99.90;;;;;;6306485;22;20532;-83
2021/12/12 05:46:42;;;;;;;16.60;10.45;;;5.00;99.90;;;;;;6306901;22;20030;-84
2021/12/12 05:49:27;;;;;;;17.90;10.50;;;5.00;99.90;;;;;;6307006;22;20019;-83
2021/12/12 05:52:16;;;;;;;16.08;9.88;;;5.20;99.90;;;;;;6306998;22;20091;-83
2021/12/12 05:55:02;;;;;;;16.05;10.32;;;5.20;99.90;;;;;;6307816;22;20045;-83
2021/12/12 05:57:53;;;;;;;17.65;11.10;;;5.10;99.90;;;;;;6307770;22;20014;-85
2021/12/12 06:00:45;;;;;;;17.90;9.80;;;5.10;99.90;;;;;;6306840;22;20026;-83
2021/12/12 06:03:37;;;;;;;15.32;9.70;;;5.40;99.90;;;;;;6308078;22;20018;-84
2021/12/12 06:06:26;;;;;;;16.05;10.10;;;5.20;99.90;;;;;;6308146;22;20013;-83
2021/12/12 06:09:13;;;;;;;16.40;10.10;;;5.10;99.90;;;;;;6307831;22;20014;-83
2021/12/12 06:12:00;;;;;;;16.63;10.23;;;5.10;99.90;;;;;;6307605;22;20015;-83
2021/12/12 06:14:47;;;;;;;19.00;11.07;;;5.20;99.90;;;;;;6306746;22;20022;-83
2021/12/12 06:17:31;;;;;;;15.05;9.98;;;5.20;99.90;;;;;;6306799;22;20011;-83
2021/12/12 06:20:19;;;;;;;17.92;10.52;;;5.20;99.90;;;;;;6284959;22;20062;-83
2021/12/12 06:23:03;;;;;;;15.98;10.40;;;5.20;99.90;;;;;;6306089;22;20079;-83
2021/12/12 06:25:49;;;;;;;16.15;9.38;;;5.20;99.90;;;;;;6307643;22;20091;-85
2021/12/12 06:28:36;;;;;;;15.57;9.75;;;5.20;99.90;;;;;;6306152;22;20019;-83
2021/12/12 06:31:21;;;;;;;19.08;10.35;;;5.20;99.90;;;;;;6306150;22;20447;-83
2021/12/12 06:34:06;;;;;;;17.70;10.60;;;5.10;99.90;;;;;;6307149;22;20057;-83
2021/12/12 06:36:52;;;;;;;18.23;11.68;;;5.20;99.90;;;;;;6306023;22;20089;-84
2021/12/12 06:39:37;;;;;;;17.52;11.27;;;5.30;99.90;;;;;;6307962;22;20056;-83
2021/12/12 06:42:22;;;;;;;21.58;12.05;;;5.30;99.90;;;;;;6307683;22;20332;-84
2021/12/12 06:45:09;;;;;;;20.75;11.90;;;5.30;99.90;;;;;;6305892;22;20025;-83
2021/12/12 06:47:55;;;;;;;24.00;13.02;;;5.30;99.90;;;;;;6305893;22;20094;-83
2021/12/12 06:50:43;;;;;;;21.73;12.32;;;5.50;99.90;;;;;;6307609;22;20011;-83
2021/12/12 06:53:29;;;;;;;19.73;12.05;;;5.30;99.90;;;;;;6307816;22;20019;-84
2021/12/12 06:56:18;;;;;;;18.67;11.73;;;5.30;99.90;;;;;;6305804;22;20014;-84
2021/12/12 06:59:04;;;;;;;17.30;10.25;;;5.50;99.90;;;;;;6307082;22;20345;-83
2021/12/12 07:01:51;;;;;;;20.30;11.23;;;5.40;99.90;;;;;;6307039;22;20140;-83
2021/12/12 07:04:37;;;;;;;18.83;11.30;;;5.90;99.90;;;;;;6307276;22;20026;-83
2021/12/12 07:07:25;;;;;;;19.35;11.18;;;5.40;99.90;;;;;;6306093;22;20109;-83
2021/12/12 07:10:14;;;;;;;17.00;10.50;;;5.40;99.90;;;;;;6306765;22;20061;-83
2021/12/12 07:13:00;;;;;;;19.65;10.45;;;5.60;99.90;;;;;;6306813;22;20030;-84
2021/12/12 07:15:48;;;;;;;19.58;10.20;;;5.60;99.90;;;;;;6305960;22;20056;-83
2021/12/12 07:18:35;;;;;;;16.35;9.50;;;5.50;99.90;;;;;;6306036;22;20014;-84
2021/12/12 07:21:20;;;;;;;15.93;9.85;;;5.50;99.90;;;;;;6305248;22;20040;-84
2021/12/12 07:24:05;;;;;;;19.25;9.68;;;5.50;99.90;;;;;;6283852;22;20062;-84
2021/12/12 07:26:49;;;;;;;17.38;10.27;;;5.50;99.90;;;;;;6305889;22;20503;-84
2021/12/12 07:29:33;;;;;;;;;;;5.60;99.90;;;;;;6284362;22;20030;-84
2021/12/12 07:32:18;;;;;;;16.30;9.07;;;5.60;99.90;;;;;;6283344;22;20413;-84
2021/12/12 07:35:07;;;;;;;16.13;9.43;;;5.60;99.90;;;;;;6261834;22;20021;-84
2021/12/12 07:37:52;;;;;;;17.77;9.95;;;5.60;99.90;;;;;;6305937;22;20014;-84
2021/12/12 07:40:41;;;;;;;17.70;10.35;;;5.60;99.90;;;;;;6305545;22;20091;-84
2021/12/12 07:43:30;;;;;;;16.33;10.68;;;5.60;99.90;;;;;;6305791;22;20080;-85
2021/12/12 07:46:14;;;;;;;22.55;11.27;;;6.10;99.90;;;;;;6304695;22;20015;-84
2021/12/12 07:48:59;;;;;;;19.33;11.15;;;5.70;99.90;;;;;;6306460;22;20017;-86
2021/12/12 07:51:43;;;;;;;22.50;12.00;;;5.80;99.90;;;;;;6306877;22;20059;-84
2021/12/12 07:54:29;;;;;;;21.48;10.65;;;5.70;99.90;;;;;;6306925;22;20089;-85
2021/12/12 07:57:13;;;;;;;21.13;10.82;;;5.90;99.90;;;;;;6283198;22;20452;-85
2021/12/12 07:59:59;;;;;;;20.88;11.88;;;6.50;99.90;;;;;;6283949;22;20034;-83
2021/12/12 08:02:45;;;;;;;21.73;12.20;;;6.30;99.90;;;;;;6305536;22;20511;-84
2021/12/12 08:05:31;;;;;;;23.48;11.40;;;5.80;99.90;;;;;;6284215;22;20518;-84
2021/12/12 08:08:16;;;;;;;19.83;11.15;;;5.80;99.90;;;;;;6305000;22;20018;-84
2021/12/12 08:11:03;;;;;;;23.70;12.52;;;6.10;99.90;;;;;;6283910;22;20014;-84
2021/12/12 08:13:48;;;;;;;23.92;11.20;;;5.90;99.90;;;;;;6306743;22;20487;-83
2021/12/12 08:16:32;;;;;;;22.98;11.23;;;5.90;99.90;;;;;;6306806;22;20059;-84
2021/12/12 08:19:19;;;;;;;18.90;10.63;;;5.90;99.90;;;;;;6304901;22;20018;-84
2021/12/12 08:22:09;;;;;;;21.83;11.80;;;6.30;99.90;;;;;;6306423;22;20014;-86
2021/12/12 08:24:59;;;;;;;21.48;11.43;;;6.00;99.90;;;;;;6305375;22;20022;-83
2021/12/12 08:27:43;;;;;;;19.45;10.68;;;6.00;99.90;;;;;;6306719;22;20045;-83
2021/12/12 08:30:30;;;;;;;18.48;10.70;;;6.00;99.90;;;;;;6282927;22;20018;-84
2021/12/12 08:33:15;;;;;;;18.05;11.38;;;6.10;99.90;;;;;;6306261;22;20397;-84
2021/12/12 08:36:00;;;;;;;23.65;12.02;;;6.10;99.90;;;;;;6283794;22;20087;-83
2021/12/12 08:38:44;;;;;;;25.27;12.10;;;6.10;99.90;;;;;;6283523;22;20080;-83
2021/12/12 08:41:29;;;;;;;24.60;13.15;;;6.20;99.90;;;;;;6306274;22;20018;-84
2021/12/12 08:44:15;;;;;;;24.20;12.85;;;6.20;99.90;;;;;;6306380;22;20026;-85
2021/12/12 08:47:00;;;;;;;24.13;12.95;;;6.20;99.90;;;;;;6305331;22;20014;-84
2021/12/12 08:49:46;;;;;;;24.70;13.88;;;6.30;99.90;;;;;;6304715;22;20018;-83
2021/12/12 08:52:38;;;;;;;24.60;14.23;;;6.30;99.90;;;;;;6307010;22;20014;-83
2021/12/12 08:55:32;;;;;;;31.60;14.80;;;6.30;99.90;;;;;;6306958;22;20390;-84
2021/12/12 08:58:22;;;;;;;28.48;14.52;;;6.40;99.90;;;;;;6308240;22;20010;-84
2021/12/12 09:01:11;;;;;;;26.17;14.10;;;6.40;99.90;;;;;;6308834;22;20075;-83
2021/12/12 09:04:01;;;;;;;32.20;14.52;;;6.50;99.90;;;;;;6308556;22;20514;-84
2021/12/12 09:06:57;;;;;;;31.77;14.93;;;6.40;99.90;;;;;;6307423;22;20019;-84
2021/12/12 09:09:58;;;;;;;34.05;15.23;;;6.50;99.90;;;;;;6308639;22;20014;-84
2021/12/12 09:12:49;;;;;;;32.60;16.30;;;6.50;99.90;;;;;;6307457;22;20046;-83
2021/12/12 09:16:05;;;;;;;39.15;16.35;;;6.60;99.90;;;;;;6308145;22;20093;-83
2021/12/12 09:19:01;;;;;;;37.90;15.85;;;6.60;99.90;;;;;;6261380;22;20091;-84
2021/12/12 09:21:53;;;;;;;40.60;17.52;;;7.00;99.90;;;;;;6308784;22;20102;-83
2021/12/12 09:24:52;;;;;;;41.50;17.70;;;6.70;99.90;;;;;;6308159;22;20152;-83
2021/12/12 09:27:43;;;;;;;38.75;17.33;;;6.70;99.90;;;;;;6308041;22;20126;-84
2021/12/12 09:30:28;;;;;;;49.28;17.63;;;6.90;99.90;;;;;;6307970;22;20059;-84
2021/12/12 09:33:19;;;;;;;43.47;18.55;;;6.80;99.90;;;;;;6308362;22;20014;-85
2021/12/12 09:36:12;;;;;;;47.65;19.77;;;6.80;99.90;;;;;;6308463;22;20015;-83
2021/12/12 09:39:05;;;;;;;55.35;20.63;;;6.90;99.90;;;;;;6308386;22;20379;-83
2021/12/12 09:42:01;;;;;;;55.28;20.55;;;6.90;99.90;;;;;;6307003;22;20018;-83
2021/12/12 09:44:58;;;;;;;63.78;21.85;;;7.00;99.90;;;;;;6308154;22;20098;-83
2021/12/12 09:48:25;;;;;;;60.13;22.45;;;7.00;99.90;;;;;;6308246;22;20080;-85
2021/12/12 09:51:16;;;;;;;67.35;22.73;;;7.10;99.90;;;;;;6308368;22;20019;-83
2021/12/12 09:54:07;;;;;;;56.60;20.75;;;7.20;99.90;;;;;;6307148;22;20437;-84
2021/12/12 09:57:03;;;;;;;62.70;23.15;;;7.20;99.90;;;;;;6308252;22;20010;-84
2021/12/12 10:00:00;;;;;;;64.53;23.13;;;7.30;99.90;;;;;;6307834;22;20040;-83
2021/12/12 10:02:50;;;;;;;74.13;22.73;;;7.30;99.90;;;;;;6306735;22;20026;-84
2021/12/12 10:06:00;;;;;;;58.15;23.00;;;7.40;99.90;;;;;;6307548;22;20038;-84
2021/12/12 10:09:10;;;;;;;60.40;23.60;;;7.40;99.90;;;;;;6306716;22;20049;-84
2021/12/12 10:12:14;;;;;;;59.35;20.92;;;7.40;99.90;;;;;;6308056;22;20444;-84
2021/12/12 10:14:58;;;;;;;58.20;22.13;;;7.50;99.90;;;;;;6307062;22;20015;-90
2021/12/12 10:17:51;;;;;;;55.67;21.90;;;7.50;99.90;;;;;;6307559;22;20025;-84
2021/12/12 10:20:47;;;;;;;53.25;21.52;;;8.00;99.90;;;;;;6307516;22;20083;-84
2021/12/12 10:24:16;;;;;;;55.10;21.58;;;7.60;99.90;;;;;;6307218;22;20018;-84
2021/12/12 10:27:08;;;;;;;57.05;20.65;;;7.60;99.90;;;;;;6162435;23;20542;-83
2021/12/12 10:30:05;;;;;;;52.67;20.38;;;7.60;99.90;;;;;;6162449;23;20016;-95
2021/12/12 10:33:03;;;;;;;48.17;19.67;;;7.70;99.90;;;;;;6305657;22;20104;-87
2021/12/12 10:36:07;;;;;;;48.92;21.75;;;7.70;99.90;;;;;;6307705;22;20060;-85
2021/12/12 10:39:06;;;;;;;62.85;21.30;;;7.80;99.90;;;;;;6308109;22;20046;-85
2021/12/12 10:42:02;;;;;;;54.65;22.10;;;7.80;99.90;;;;;;6306780;22;20013;-84
2021/12/12 10:44:53;;;;;;;56.80;22.40;;;7.80;99.90;;;;;;6307250;22;20045;-83
2021/12/12 10:48:19;;;;;;;55.17;20.23;;;7.90;99.90;;;;;;6307247;22;20026;-84
2021/12/12 10:51:14;;;;;;;48.28;20.25;;;7.90;99.90;;;;;;6255010;22;20010;-83
2021/12/12 10:54:01;;;;;;;;;;;7.90;99.90;;;;;;6308245;22;20014;-83
2021/12/12 10:57:08;;;;;;;48.25;20.50;;;7.90;99.90;;;;;;6305649;22;20459;-84
2021/12/12 11:00:20;;;;;;;52.25;20.65;;;8.00;99.90;;;;;;6306164;22;20010;-84
2021/12/12 11:03:35;;;;;;;47.22;20.52;;;8.00;99.90;;;;;;6276312;22;20460;-84
2021/12/12 11:06:35;;;;;;;47.83;19.48;;;8.00;99.90;;;;;;6253698;22;20018;-85
2021/12/12 11:09:39;;;;;;;40.85;18.00;;;8.10;99.90;;;;;;6253648;22;20010;-84
2021/12/12 11:12:35;;;;;;;40.90;18.52;;;8.10;99.90;;;;;;6253811;22;20046;-84
2021/12/12 11:15:44;;;;;;;37.35;17.10;;;8.10;99.90;;;;;;6276282;22;20449;-84
2021/12/12 11:18:31;;;;;;;37.75;17.23;;;8.20;99.90;;;;;;6275796;22;20095;-85
2021/12/12 11:21:32;;;;;;;40.83;17.80;;;8.20;99.90;;;;;;6276056;22;20051;-84
2021/12/12 11:24:27;;;;;;;40.90;18.02;;;8.20;99.90;;;;;;6276586;22;20445;-84
2021/12/12 11:27:21;;;;;;;33.58;16.45;;;8.30;99.90;;;;;;6253443;22;20065;-85
2021/12/12 11:30:21;;;;;;;36.53;17.17;;;8.30;99.90;;;;;;6276373;22;20015;-84
2021/12/12 11:33:08;;;;;;;34.05;16.77;;;8.40;99.90;;;;;;6253086;22;20414;-83
2021/12/12 11:35:55;;;;;;;37.42;17.35;;;8.40;99.90;;;;;;6275795;22;20015;-82
2021/12/12 11:38:53;;;;;;;36.97;17.55;;;8.40;99.90;;;;;;6275625;22;20015;-83
2021/12/12 11:41:47;;;;;;;34.10;15.63;;;8.50;99.90;;;;;;6275704;22;20011;-85
2021/12/12 11:44:38;;;;;;;32.13;16.48;;;8.50;99.90;;;;;;6275824;22;20091;-86
2021/12/12 11:47:40;;;;;;;35.40;16.63;;;8.50;99.90;;;;;;6276477;22;20018;-84
2021/12/12 11:50:41;;;;;;;36.42;16.08;;;8.50;99.90;;;;;;6276132;22;20083;-85
2021/12/12 11:53:44;;;;;;;36.85;16.38;;;8.60;99.90;;;;;;6253196;22;20023;-83
2021/12/12 11:56:34;;;;;;;38.72;17.10;;;8.50;99.90;;;;;;6276204;22;20041;-84
2021/12/12 11:59:25;;;;;;;46.67;16.38;;;8.60;99.90;;;;;;6276095;22;20026;-84
2021/12/12 12:02:37;;;;;;;38.80;16.98;;;8.60;99.90;;;;;;6294352;22;20068;-84
2021/12/12 12:05:42;;;;;;;39.53;18.02;;;8.70;99.90;;;;;;6317553;22;20019;-83
2021/12/12 12:08:46;;;;;;;40.15;17.70;;;8.70;99.90;;;;;;6306987;22;20094;-83
2021/12/12 12:12:08;;;;;;;48.22;18.55;;;8.70;99.90;;;;;;6305456;22;20038;-83
2021/12/12 12:15:16;;;;;;;37.47;18.38;;;8.60;99.90;;;;;;6305035;22;20064;-82
2021/12/12 12:18:17;;;;;;;48.63;18.75;;;8.60;99.90;;;;;;6305307;22;20033;-83
2021/12/12 12:21:13;;;;;;;39.20;16.60;;;8.70;99.90;;;;;;6285055;22;20359;-84
2021/12/12 12:24:13;;;;;;;37.97;17.08;;;8.70;99.90;;;;;;6306153;22;20013;-84
2021/12/12 12:27:03;;;;;;;47.50;18.95;;;8.70;99.90;;;;;;6306153;22;20006;-83
2021/12/12 12:30:15;;;;;;;51.28;19.35;;;8.70;99.90;;;;;;6305045;22;20015;-83
2021/12/12 12:33:21;;;;;;;50.38;19.55;;;8.70;99.90;;;;;;6302634;22;20041;-83
2021/12/12 12:36:27;;;;;;;49.65;19.70;;;8.70;99.90;;;;;;6305498;22;20052;-83
2021/12/12 12:39:40;;;;;;;72.82;20.80;;;8.80;99.90;;;;;;6303644;22;20053;-83
2021/12/12 12:43:02;;;;;;;56.13;19.80;;;8.80;99.90;;;;;;6263074;22;20049;-83
2021/12/12 12:46:08;;;;;;;52.80;20.48;;;8.80;99.90;;;;;;6305023;22;20018;-83
2021/12/12 12:49:30;;;;;;;51.40;18.92;;;8.80;99.90;;;;;;6303814;22;20014;-83
2021/12/12 12:52:39;;;;;;;56.22;20.45;;;8.80;99.90;;;;;;6304324;22;20010;-83
2021/12/12 12:55:58;;;;;;;65.47;20.95;;;8.80;99.90;;;;;;6305591;22;20094;-83
2021/12/12 12:59:04;;;;;;;43.65;17.98;;;8.90;99.90;;;;;;6302106;22;20014;-83
2021/12/12 13:02:26;;;;;;;55.50;19.35;;;8.90;99.90;;;;;;6303514;22;20057;-85
2021/12/12 13:05:50;;;;;;;44.90;17.92;;;9.00;99.90;;;;;;6304401;22;20475;-83
2021/12/12 13:08:50;;;;;;;53.60;19.17;;;9.00;99.90;;;;;;6303176;22;20384;-83
2021/12/12 13:11:40;;;;;;;47.45;17.58;;;9.00;99.90;;;;;;6303144;22;20076;-83
2021/12/12 13:14:48;;;;;;;49.22;17.98;;;9.10;99.90;;;;;;6304455;22;20068;-83
2021/12/12 13:18:15;;;;;;;45.53;17.35;;;9.10;99.90;;;;;;6304237;22;20060;-83
2021/12/12 13:21:18;;;;;;;49.85;18.23;;;9.10;99.90;;;;;;6303767;22;20099;-83
2021/12/12 13:24:07;;;;;;;54.58;19.13;;;9.10;99.90;;;;;;6302500;22;20152;-83
2021/12/12 13:27:28;;;;;;;46.42;17.27;;;9.20;99.90;;;;;;6302310;22;20014;-83
2021/12/12 13:30:27;;;;;;;47.20;17.23;;;9.20;99.90;;;;;;6304168;22;20014;-83
2021/12/12 13:33:29;;;;;;;46.30;17.88;;;9.20;99.90;;;;;;6303144;22;20479;-84
2021/12/12 13:36:35;;;;;;;42.47;17.35;;;9.20;99.90;;;;;;6304315;22;20050;-83
2021/12/12 13:39:34;;;;;;;40.08;16.83;;;9.20;99.90;;;;;;6304127;22;20146;-83
2021/12/12 13:42:40;;;;;;;38.75;16.52;;;9.20;99.90;;;;;;6304805;22;20036;-83
2021/12/12 13:45:31;;;;;;;50.08;18.33;;;9.20;99.90;;;;;;6304694;22;20019;-83
2021/12/12 13:48:32;;;;;;;47.97;17.92;;;9.30;99.90;;;;;;6305981;22;20503;-84
2021/12/12 13:51:35;;;;;;;41.97;17.00;;;9.30;99.90;;;;;;6305831;22;20076;-84
2021/12/12 13:54:45;;;;;;;47.72;17.15;;;9.40;99.90;;;;;;6304744;22;20065;-83
2021/12/12 13:57:43;;;;;;;52.13;17.27;;;9.40;99.90;;;;;;6305981;22;20045;-83
2021/12/12 14:00:33;;;;;;;49.80;17.05;;;9.40;99.90;;;;;;6304231;22;20060;-84
2021/12/12 14:03:40;;;;;;;41.38;16.42;;;9.40;99.90;;;;;;6304275;22;20010;-84
2021/12/12 14:06:27;;;;;;;44.55;16.25;;;9.50;99.90;;;;;;6304604;22;20326;-83
2021/12/12 14:09:17;;;;;;;34.83;13.82;;;9.50;99.90;;;;;;6305368;22;20072;-83
2021/12/12 14:12:02;;;;;;;38.53;14.43;;;9.50;99.90;;;;;;6305704;22;20014;-83
2021/12/12 14:15:04;;;;;;;33.08;13.40;;;9.60;99.90;;;;;;6305611;22;20017;-84
2021/12/12 14:17:58;;;;;;;34.33;13.68;;;9.60;99.90;;;;;;6304468;22;20088;-84
2021/12/12 14:20:53;;;;;;;32.30;13.85;;;9.60;99.90;;;;;;6304421;22;20014;-84
2021/12/12 14:23:40;;;;;;;36.00;12.85;;;9.60;99.90;;;;;;6305553;22;20360;-84
2021/12/12 14:26:32;;;;;;;37.38;13.90;;;9.60;99.90;;;;;;6305522;22;20064;-83
2021/12/12 14:29:20;;;;;;;35.78;13.45;;;9.60;99.90;;;;;;6304953;22;20011;-83
2021/12/12 14:32:09;;;;;;;31.25;12.50;;;9.60;99.90;;;;;;6303630;22;20009;-83
2021/12/12 14:35:05;;;;;;;41.40;13.98;;;9.60;99.90;;;;;;6305454;22;20014;-85
2021/12/12 14:37:53;;;;;;;30.88;12.30;;;9.70;99.90;;;;;;6305722;22;20014;-83
2021/12/12 14:40:43;;;;;;;33.00;13.43;;;9.70;99.90;;;;;;6304247;22;20061;-84
2021/12/12 14:43:59;;;;;;;34.25;13.30;;;9.70;99.90;;;;;;6305342;22;20019;-83
2021/12/12 14:46:53;;;;;;;44.10;15.45;;;9.70;99.90;;;;;;6305387;22;20034;-90
2021/12/12 14:49:47;;;;;;;35.83;14.77;;;9.70;99.90;;;;;;6305089;22;20014;-87
2021/12/12 14:52:34;;;;;;;38.83;15.57;;;9.70;99.90;;;;;;6307962;22;20017;-84
2021/12/12 14:55:40;;;;;;;36.63;14.60;;;9.70;99.90;;;;;;6304790;22;20452;-83
2021/12/12 14:58:42;;;;;;;43.50;15.38;;;9.70;99.90;;;;;;6304020;22;20014;-83
2021/12/12 15:01:40;;;;;;;35.65;14.23;;;9.70;99.90;;;;;;6303681;22;20072;-84
2021/12/12 15:04:35;;;;;;;39.30;15.02;;;9.70;99.90;;;;;;6303683;22;20022;-84
2021/12/12 15:07:21;;;;;;;40.28;15.50;;;9.60;99.90;;;;;;6304364;22;20557;-85
2021/12/12 15:10:31;;;;;;;41.15;14.57;;;9.70;99.90;;;;;;6304556;22;20022;-85